Página principal
METAR-TAF:

METAR-TAF

Aeroportos :

Cartum, Sudão

Aeroporto Internacional de Cartum

latitude: 15-36N, longitude: 032-33E, altura: 382 m

Observação actual do tempo

O boletim foi feito há 26 minutos, às 23:00 UTC
Vento 7 kt de norte
Temperatura 24°C
Humidade 29%
Pressão 1014 hPa
Visibilidade 10 km ou mais
sem nuvens abaixo de 1500 metros e sem cumulonimbus

METAR: HSSS 122300Z 01007KT CAVOK 24/05 Q1014 NOSIG

Hora: 02:26 (23:26 UTC)

Previsão

O boletim foi feito há 6 horas e 26 minutos, às 17:00 UTC
Previsão válida de 12 às 18 UTC a 13 às 24 UTC
Vento 6 kt de norte
Visibilidade 10 km ou mais
sem nuvens abaixo de 1500 metros e sem cumulonimbus
Temporariamente
de 12 às 18 UTC a 13 às 00 UTC
Visibilidade: 4000 m
bruma
Temporariamente
de 13 às 00 UTC a 13 às 09 UTC
Visibilidade: 6000 m

TAF: HSSS 121700Z 1218/1324 36006KT CAVOK TEMPO 1218/1300 4000 HZ TEMPO 1300/1309 6000

Observações e previsões do tempo de mais de 4000 aeroportos (mensagens METAR e TAF).

As estações disponíveis são os pontos amarelos e vermelhos sobre o mapa.

Mova o rato sobre o mapa para ver o nome da estação.

Depois clique no ponto para visualizar as observações e previsões meteorológicas.

Para alterar o mapa : clique nos botões verdes com uma cruz preta para aumentar o zoom; no botão verde com uma pitada de zoom; ou nas setas verdes para mapas adjacentes.


METAR-TAF: